createdAt,value
2017-08-12T00:00:11.579Z,0
2017-08-12T00:01:12.262Z,0
2017-08-12T00:02:13.166Z,0
2017-08-12T00:03:13.819Z,0
2017-08-12T00:04:14.471Z,0
2017-08-12T00:05:15.124Z,0
2017-08-12T00:06:15.777Z,0
2017-08-12T00:07:16.816Z,0
2017-08-12T00:08:17.473Z,0
2017-08-12T00:09:18.127Z,0
2017-08-12T00:10:18.779Z,0
2017-08-12T00:11:19.432Z,0
2017-08-12T00:12:20.334Z,0
2017-08-12T00:13:20.986Z,0
2017-08-12T00:14:21.639Z,0
2017-08-12T00:15:22.291Z,0
2017-08-12T00:16:22.942Z,0
2017-08-12T00:17:23.895Z,0
2017-08-12T00:18:24.547Z,0
2017-08-12T00:19:25.198Z,0
2017-08-12T00:20:25.852Z,0
2017-08-12T00:21:26.503Z,0
2017-08-12T00:22:27.405Z,0
2017-08-12T00:23:28.059Z,0
2017-08-12T00:24:28.713Z,0
2017-08-12T00:25:29.364Z,0
2017-08-12T00:26:30.015Z,0
2017-08-12T00:27:30.919Z,0
2017-08-12T00:28:31.569Z,0
2017-08-12T00:29:32.223Z,0
2017-08-12T00:30:32.876Z,0
2017-08-12T00:31:33.527Z,0
2017-08-12T00:32:34.430Z,0
2017-08-12T00:33:35.085Z,0
2017-08-12T00:34:35.736Z,0
2017-08-12T00:35:36.389Z,0
2017-08-12T00:36:37.041Z,0
2017-08-12T00:37:37.942Z,0
2017-08-12T00:38:38.595Z,0
2017-08-12T00:39:39.248Z,0
2017-08-12T00:40:39.900Z,0
2017-08-12T00:41:40.552Z,0
2017-08-12T00:42:41.474Z,0
2017-08-12T00:43:42.125Z,0
2017-08-12T00:44:42.778Z,0
2017-08-12T00:45:43.430Z,0
2017-08-12T00:46:44.082Z,0
2017-08-12T00:47:44.985Z,0
2017-08-12T00:48:45.636Z,0
2017-08-12T00:49:46.289Z,0
2017-08-12T00:50:46.941Z,0
2017-08-12T00:51:47.592Z,0
2017-08-12T00:52:48.497Z,0
2017-08-12T00:53:49.152Z,0
2017-08-12T00:54:49.801Z,0
2017-08-12T00:55:50.452Z,0
2017-08-12T00:56:51.104Z,0
2017-08-12T00:57:52.007Z,0
2017-08-12T00:58:52.659Z,0
2017-08-12T00:59:53.311Z,0
2017-08-12T01:00:53.964Z,0
2017-08-12T01:01:54.614Z,0
2017-08-12T01:02:55.517Z,0
2017-08-12T01:03:56.170Z,0
2017-08-12T01:04:56.822Z,0
2017-08-12T01:05:57.475Z,0
2017-08-12T01:06:58.127Z,0
2017-08-12T01:07:59.029Z,0
2017-08-12T01:08:59.683Z,0
2017-08-12T01:10:00.335Z,0
2017-08-12T01:11:00.986Z,0
2017-08-12T01:12:01.639Z,0
2017-08-12T01:13:02.542Z,0
2017-08-12T01:14:03.194Z,0
2017-08-12T01:15:03.847Z,0
2017-08-12T01:16:04.497Z,0
2017-08-12T01:17:05.150Z,0
2017-08-12T01:18:06.053Z,0
2017-08-12T01:19:06.704Z,0
2017-08-12T01:20:07.358Z,0
2017-08-12T01:21:08.010Z,0
2017-08-12T01:22:08.662Z,0
2017-08-12T01:23:09.566Z,0
2017-08-12T01:24:10.217Z,0
2017-08-12T01:25:10.870Z,0
2017-08-12T01:26:11.523Z,0
2017-08-12T01:27:12.175Z,0
2017-08-12T01:28:13.077Z,0
2017-08-12T01:29:13.729Z,0
2017-08-12T01:30:14.381Z,0
2017-08-12T01:31:15.069Z,0
2017-08-12T01:32:15.723Z,0
2017-08-12T01:33:16.625Z,0
2017-08-12T01:34:17.278Z,0
2017-08-12T01:35:17.931Z,0
2017-08-12T01:36:18.583Z,0
2017-08-12T01:37:19.236Z,0
2017-08-12T01:38:20.137Z,0
2017-08-12T01:39:20.791Z,0
2017-08-12T01:40:21.442Z,0
2017-08-12T01:41:22.093Z,0
2017-08-12T01:42:22.747Z,0
2017-08-12T01:43:23.648Z,0
2017-08-12T01:44:24.300Z,0
2017-08-12T01:45:24.953Z,0
2017-08-12T01:46:25.605Z,0
2017-08-12T01:47:26.256Z,0
2017-08-12T01:48:27.209Z,0
2017-08-12T01:49:27.862Z,0
2017-08-12T01:50:28.513Z,0
2017-08-12T01:51:29.164Z,0
2017-08-12T01:52:29.818Z,0
2017-08-12T01:53:30.719Z,0
2017-08-12T01:54:31.407Z,0
2017-08-12T01:55:32.060Z,0
2017-08-12T01:56:32.711Z,0
2017-08-12T01:57:33.362Z,0
2017-08-12T01:58:34.268Z,0
2017-08-12T01:59:34.921Z,0
2017-08-12T02:00:35.577Z,0
2017-08-12T02:01:36.226Z,0
2017-08-12T02:02:36.878Z,0
2017-08-12T02:03:37.829Z,0
2017-08-12T02:04:38.480Z,0
2017-08-12T02:05:39.133Z,0
2017-08-12T02:06:39.784Z,0
2017-08-12T02:07:40.435Z,0
2017-08-12T02:08:41.388Z,0
2017-08-12T02:09:42.039Z,0
2017-08-12T02:10:42.691Z,0
2017-08-12T02:11:43.381Z,0
2017-08-12T02:12:44.030Z,0
2017-08-12T02:13:44.984Z,0
2017-08-12T02:14:45.647Z,0
2017-08-12T02:15:46.301Z,0
2017-08-12T02:16:46.953Z,0
2017-08-12T02:17:47.605Z,0
2017-08-12T02:18:48.507Z,0
2017-08-12T02:19:49.160Z,0
2017-08-12T02:20:49.811Z,0
2017-08-12T02:21:50.462Z,0
2017-08-12T02:22:51.116Z,0
2017-08-12T02:23:52.018Z,0
2017-08-12T02:24:52.668Z,0
2017-08-12T02:25:53.322Z,0
2017-08-12T02:26:53.974Z,0
2017-08-12T02:27:54.627Z,0
2017-08-12T02:28:55.579Z,0
2017-08-12T02:29:56.231Z,0
2017-08-12T02:30:56.918Z,0
2017-08-12T02:31:57.570Z,0
2017-08-12T02:32:58.225Z,0
2017-08-12T02:33:59.124Z,0
2017-08-12T02:34:59.777Z,0
2017-08-12T02:36:00.428Z,0
2017-08-12T02:37:01.080Z,0
2017-08-12T02:38:01.732Z,0
2017-08-12T02:39:02.634Z,0
2017-08-12T02:40:03.287Z,0
2017-08-12T02:41:03.940Z,0
2017-08-12T02:42:04.596Z,0
2017-08-12T02:43:05.248Z,0
2017-08-12T02:44:06.150Z,0
2017-08-12T02:45:06.804Z,0
2017-08-12T02:46:07.457Z,0
2017-08-12T02:47:08.110Z,0
2017-08-12T02:48:08.762Z,0
2017-08-12T02:49:09.665Z,0
2017-08-12T02:50:10.318Z,0
2017-08-12T02:51:10.968Z,0
2017-08-12T02:52:11.622Z,0
2017-08-12T02:53:12.282Z,0
2017-08-12T02:54:13.234Z,0
2017-08-12T02:55:13.886Z,0
2017-08-12T02:56:14.547Z,0
2017-08-12T02:57:15.190Z,0
2017-08-12T02:58:15.842Z,0
2017-08-12T02:59:16.794Z,0
2017-08-12T03:00:17.448Z,0
2017-08-12T03:01:18.099Z,0
2017-08-12T03:02:18.754Z,0
2017-08-12T03:03:19.439Z,0
2017-08-12T03:04:20.345Z,0
2017-08-12T03:05:20.995Z,0
2017-08-12T03:06:21.649Z,0
2017-08-12T03:07:22.299Z,0
2017-08-12T03:08:22.951Z,0
2017-08-12T03:09:23.855Z,0
2017-08-12T03:10:24.508Z,0
2017-08-12T03:11:25.160Z,0
2017-08-12T03:12:25.813Z,0
2017-08-12T03:13:26.465Z,0
2017-08-12T03:14:27.417Z,0
2017-08-12T03:15:28.067Z,0
2017-08-12T03:16:28.721Z,0
2017-08-12T03:17:29.375Z,0
2017-08-12T03:18:30.024Z,0
2017-08-12T03:19:30.928Z,0
2017-08-12T03:20:31.580Z,0
2017-08-12T03:21:32.232Z,0
2017-08-12T03:22:32.884Z,0
2017-08-12T03:23:33.534Z,0
2017-08-12T03:24:34.439Z,0
2017-08-12T03:25:35.091Z,0
2017-08-12T03:26:35.743Z,0
2017-08-12T03:27:36.394Z,0
2017-08-12T03:28:37.045Z,4
2017-08-12T03:29:37.948Z,4
2017-08-12T03:30:38.601Z,0
2017-08-12T03:31:39.250Z,4
2017-08-12T03:32:39.903Z,4
2017-08-12T03:33:40.565Z,4
2017-08-12T03:34:41.501Z,8
2017-08-12T03:35:42.154Z,8
2017-08-12T03:36:42.807Z,12
2017-08-12T03:37:43.461Z,16
2017-08-12T03:38:44.114Z,16
2017-08-12T03:39:45.017Z,20
2017-08-12T03:40:45.669Z,24
2017-08-12T03:41:46.323Z,24
2017-08-12T03:42:46.978Z,28
2017-08-12T03:43:47.630Z,40
2017-08-12T03:44:48.583Z,40
2017-08-12T03:45:49.235Z,52
2017-08-12T03:46:49.889Z,56
2017-08-12T03:47:50.540Z,64
2017-08-12T03:48:51.195Z,72
2017-08-12T03:49:52.151Z,84
2017-08-12T03:50:52.799Z,96
2017-08-12T03:51:53.453Z,108
2017-08-12T03:52:54.106Z,120
2017-08-12T03:53:54.760Z,132
2017-08-12T03:54:55.665Z,152
2017-08-12T03:55:56.318Z,168
2017-08-12T03:56:56.975Z,184
2017-08-12T03:57:57.626Z,208
2017-08-12T03:58:58.280Z,232
2017-08-12T03:59:59.183Z,256
2017-08-12T04:00:59.835Z,284
2017-08-12T04:02:00.493Z,308
2017-08-12T04:03:01.145Z,332
2017-08-12T04:04:01.799Z,352
2017-08-12T04:05:02.707Z,372
2017-08-12T04:06:03.356Z,396
2017-08-12T04:07:04.009Z,420
2017-08-12T04:08:04.663Z,440
2017-08-12T04:09:05.316Z,460
2017-08-12T04:10:06.221Z,484
2017-08-12T04:11:06.875Z,508
2017-08-12T04:12:07.530Z,532
2017-08-12T04:13:08.185Z,552
2017-08-12T04:14:08.841Z,568
2017-08-12T04:15:09.746Z,584
2017-08-12T04:16:10.401Z,596
2017-08-12T04:17:11.054Z,604
2017-08-12T04:18:11.710Z,600
2017-08-12T04:19:12.370Z,596
2017-08-12T04:20:13.274Z,600
2017-08-12T04:21:13.929Z,608
2017-08-12T04:22:14.584Z,620
2017-08-12T04:23:15.240Z,620
2017-08-12T04:24:15.894Z,616
2017-08-12T04:25:16.799Z,620
2017-08-12T04:26:17.454Z,644
2017-08-12T04:27:18.110Z,668
2017-08-12T04:28:18.765Z,700
2017-08-12T04:29:19.419Z,728
2017-08-12T04:30:20.323Z,756
2017-08-12T04:31:20.981Z,772
2017-08-12T04:32:21.634Z,780
2017-08-12T04:33:22.290Z,788
2017-08-12T04:34:22.945Z,784
2017-08-12T04:35:23.850Z,796
2017-08-12T04:36:24.504Z,836
2017-08-12T04:37:25.160Z,876
2017-08-12T04:38:25.812Z,928
2017-08-12T04:39:26.467Z,952
2017-08-12T04:40:27.374Z,1000
2017-08-12T04:41:28.030Z,1076
2017-08-12T04:42:28.685Z,1208
2017-08-12T04:43:29.341Z,1400
2017-08-12T04:44:29.998Z,1616
2017-08-12T04:45:30.904Z,1776
2017-08-12T04:46:31.595Z,1900
2017-08-12T04:47:32.252Z,2032
2017-08-12T04:48:32.909Z,2172
2017-08-12T04:49:33.599Z,2328
2017-08-12T04:50:34.505Z,2476
2017-08-12T04:51:35.162Z,2636
2017-08-12T04:52:35.818Z,2756
2017-08-12T04:53:36.472Z,2884
2017-08-12T04:54:37.131Z,3064
2017-08-12T04:55:38.081Z,3268
2017-08-12T04:56:38.738Z,3532
2017-08-12T04:57:39.392Z,3832
2017-08-12T04:58:40.046Z,4132
2017-08-12T04:59:40.701Z,4472
2017-08-12T05:00:41.607Z,4720
2017-08-12T05:01:42.264Z,4676
2017-08-12T05:02:42.951Z,4500
2017-08-12T05:03:43.607Z,3980
2017-08-12T05:04:44.262Z,3504
2017-08-12T05:05:45.167Z,3420
2017-08-12T05:06:45.829Z,3744
2017-08-12T05:07:46.479Z,3872
2017-08-12T05:08:47.136Z,3796
2017-08-12T05:09:47.798Z,3756
2017-08-12T05:10:48.703Z,3740
2017-08-12T05:11:49.359Z,3716
2017-08-12T05:12:50.013Z,3792
2017-08-12T05:13:50.669Z,3944
2017-08-12T05:14:51.324Z,4160
2017-08-12T05:15:52.231Z,4308
2017-08-12T05:16:52.886Z,4272
2017-08-12T05:17:53.542Z,4188
2017-08-12T05:18:54.197Z,4184
2017-08-12T05:19:54.853Z,4316
2017-08-12T05:20:55.759Z,4536
2017-08-12T05:21:56.416Z,4856
2017-08-12T05:22:57.073Z,4892
2017-08-12T05:23:57.725Z,4588
2017-08-12T05:24:58.382Z,4608
2017-08-12T05:25:59.338Z,5092
2017-08-12T05:26:59.997Z,5400
2017-08-12T05:28:00.654Z,5948
2017-08-12T05:29:01.349Z,6152
2017-08-12T05:30:02.040Z,6228
2017-08-12T05:31:02.999Z,6320
2017-08-12T05:32:03.696Z,6320
2017-08-12T05:33:04.350Z,6252
2017-08-12T05:34:05.007Z,6140
2017-08-12T05:35:05.664Z,6084
2017-08-12T05:36:06.621Z,6076
2017-08-12T05:37:07.281Z,6084
2017-08-12T05:38:07.937Z,6096
2017-08-12T05:39:08.594Z,6120
2017-08-12T05:40:09.250Z,6036
2017-08-12T05:41:10.158Z,5992
2017-08-12T05:42:10.817Z,6000
2017-08-12T05:43:11.471Z,6132
2017-08-12T05:44:12.134Z,6216
2017-08-12T05:45:12.785Z,6160
2017-08-12T05:46:13.692Z,5900
2017-08-12T05:47:14.349Z,5640
2017-08-12T05:48:15.007Z,5272
2017-08-12T05:49:15.667Z,4800
2017-08-12T05:50:16.318Z,4472
2017-08-12T05:51:17.226Z,4404
2017-08-12T05:52:17.881Z,4428
2017-08-12T05:53:18.536Z,4496
2017-08-12T05:54:19.194Z,4448
2017-08-12T05:55:19.851Z,4396
2017-08-12T05:56:20.757Z,4308
2017-08-12T05:57:21.415Z,4264
2017-08-12T05:58:22.070Z,4388
2017-08-12T05:59:22.727Z,4636
2017-08-12T06:00:23.383Z,4992
2017-08-12T06:01:24.289Z,5448
2017-08-12T06:02:24.945Z,6020
2017-08-12T06:03:25.604Z,6464
2017-08-12T06:04:26.260Z,6576
2017-08-12T06:05:26.916Z,6344
2017-08-12T06:06:27.874Z,6020
2017-08-12T06:07:28.529Z,5680
2017-08-12T06:08:29.191Z,5460
2017-08-12T06:09:29.846Z,5388
2017-08-12T06:10:30.503Z,5412
2017-08-12T06:11:31.411Z,5428
2017-08-12T06:12:32.068Z,5368
2017-08-12T06:13:32.760Z,5076
2017-08-12T06:14:33.416Z,4852
2017-08-12T06:15:34.072Z,4744
2017-08-12T06:16:34.978Z,4820
2017-08-12T06:17:35.634Z,4904
2017-08-12T06:18:36.288Z,4972
2017-08-12T06:19:36.949Z,5116
2017-08-12T06:20:37.604Z,5368
2017-08-12T06:21:38.565Z,5928
2017-08-12T06:22:39.222Z,6712
2017-08-12T06:23:39.877Z,7508
2017-08-12T06:24:40.535Z,7880
2017-08-12T06:25:41.191Z,7928
2017-08-12T06:26:42.100Z,7996
2017-08-12T06:27:42.757Z,8032
2017-08-12T06:28:43.416Z,7900
2017-08-12T06:29:44.070Z,7752
2017-08-12T06:30:44.728Z,7600
2017-08-12T06:31:45.638Z,7512
2017-08-12T06:32:46.295Z,7520
2017-08-12T06:33:46.953Z,7580
2017-08-12T06:34:47.616Z,7604
2017-08-12T06:35:48.307Z,7500
2017-08-12T06:36:49.216Z,7480
2017-08-12T06:37:49.875Z,7640
2017-08-12T06:38:50.567Z,7876
2017-08-12T06:39:51.227Z,8164
2017-08-12T06:40:51.920Z,8476
2017-08-12T06:41:52.828Z,8808
2017-08-12T06:42:53.503Z,9072
2017-08-12T06:43:54.146Z,9268
2017-08-12T06:44:54.840Z,9552
2017-08-12T06:45:55.498Z,9752
2017-08-12T06:46:56.758Z,9760
2017-08-12T06:47:57.417Z,10040
2017-08-12T06:48:58.077Z,10240
2017-08-12T06:49:58.737Z,10044
2017-08-12T06:50:59.395Z,9772
2017-08-12T06:52:00.302Z,9676
2017-08-12T06:53:00.962Z,9836
2017-08-12T06:54:01.619Z,10144
2017-08-12T06:55:02.280Z,10628
2017-08-12T06:56:02.939Z,11116
2017-08-12T06:57:03.850Z,11452
2017-08-12T06:58:04.505Z,11428
2017-08-12T06:59:05.165Z,11080
2017-08-12T07:00:05.826Z,10736
2017-08-12T07:01:06.483Z,10232
2017-08-12T07:02:07.392Z,9584
2017-08-12T07:03:08.050Z,8836
2017-08-12T07:04:08.709Z,8228
2017-08-12T07:05:09.369Z,7904
2017-08-12T07:06:10.026Z,7684
2017-08-12T07:07:10.937Z,7332
2017-08-12T07:08:11.634Z,6824
2017-08-12T07:09:12.292Z,6464
2017-08-12T07:10:12.949Z,6252
2017-08-12T07:11:13.607Z,6156
2017-08-12T07:12:14.526Z,6152
2017-08-12T07:13:15.184Z,6224
2017-08-12T07:14:15.842Z,6256
2017-08-12T07:15:16.500Z,6308
2017-08-12T07:16:17.159Z,6300
2017-08-12T07:17:18.116Z,6272
2017-08-12T07:18:18.774Z,6228
2017-08-12T07:19:19.432Z,6196
2017-08-12T07:20:20.091Z,6200
2017-08-12T07:21:20.749Z,6288
2017-08-12T07:22:21.657Z,6580
2017-08-12T07:23:22.315Z,6972
2017-08-12T07:24:22.973Z,7312
2017-08-12T07:25:23.632Z,7604
2017-08-12T07:26:24.288Z,7896
2017-08-12T07:27:25.246Z,8168
2017-08-12T07:28:25.908Z,8432
2017-08-12T07:29:26.566Z,8692
2017-08-12T07:30:27.221Z,8960
2017-08-12T07:31:27.880Z,9172
2017-08-12T07:32:28.788Z,9252
2017-08-12T07:33:29.447Z,9160
2017-08-12T07:34:30.105Z,9212
2017-08-12T07:35:30.765Z,9528
2017-08-12T07:36:31.422Z,9740
2017-08-12T07:37:32.330Z,9928
2017-08-12T07:38:32.991Z,10080
2017-08-12T07:39:33.687Z,10204
2017-08-12T07:40:34.348Z,10268
2017-08-12T07:41:35.005Z,10120
2017-08-12T07:42:35.913Z,10008
2017-08-12T07:43:36.572Z,9904
2017-08-12T07:44:37.233Z,9320
2017-08-12T07:45:37.892Z,9036
2017-08-12T07:46:38.550Z,9160
2017-08-12T07:47:39.458Z,9552
2017-08-12T07:48:40.117Z,10040
2017-08-12T07:49:40.778Z,10616
2017-08-12T07:50:41.438Z,11340
2017-08-12T07:51:42.096Z,12172
2017-08-12T07:52:43.056Z,13084
2017-08-12T07:53:43.715Z,14156
2017-08-12T07:54:44.373Z,15144
2017-08-12T07:55:45.035Z,15620
2017-08-12T07:56:45.698Z,15292
2017-08-12T07:57:46.608Z,14348
2017-08-12T07:58:47.268Z,13660
2017-08-12T07:59:47.928Z,13156
2017-08-12T08:00:48.587Z,12988
2017-08-12T08:01:49.248Z,13292
2017-08-12T08:02:50.160Z,13372
2017-08-12T08:03:50.819Z,13052
2017-08-12T08:04:51.517Z,12688
2017-08-12T08:05:52.179Z,12848
2017-08-12T08:06:52.840Z,13644
2017-08-12T08:07:53.752Z,14476
2017-08-12T08:08:54.415Z,14972
2017-08-12T08:09:55.075Z,15204
2017-08-12T08:10:55.735Z,14900
2017-08-12T08:11:56.397Z,14148
2017-08-12T08:12:57.308Z,13620
2017-08-12T08:13:57.974Z,13688
2017-08-12T08:14:58.635Z,14080
2017-08-12T08:15:59.299Z,14604
2017-08-12T08:17:00.001Z,15216
2017-08-12T08:18:00.943Z,15988
2017-08-12T08:19:01.607Z,16924
2017-08-12T08:20:02.266Z,18048
2017-08-12T08:21:02.925Z,18656
2017-08-12T08:22:03.587Z,19200
2017-08-12T08:23:04.536Z,19392
2017-08-12T08:24:05.198Z,19200
2017-08-12T08:25:05.875Z,18624
2017-08-12T08:26:06.519Z,18144
2017-08-12T08:27:07.178Z,17888
2017-08-12T08:28:08.089Z,17952
2017-08-12T08:29:08.752Z,17984
2017-08-12T08:30:09.412Z,17952
2017-08-12T08:31:10.072Z,17664
2017-08-12T08:32:10.733Z,17440
2017-08-12T08:33:11.646Z,17024
2017-08-12T08:34:12.308Z,16412
2017-08-12T08:35:12.970Z,15368
2017-08-12T08:36:13.631Z,14228
2017-08-12T08:37:14.293Z,13396
2017-08-12T08:38:15.237Z,13024
2017-08-12T08:39:15.899Z,12924
2017-08-12T08:40:16.561Z,13032
2017-08-12T08:41:17.220Z,13428
2017-08-12T08:42:17.881Z,14024
2017-08-12T08:43:18.791Z,15032
2017-08-12T08:44:19.454Z,16616
2017-08-12T08:45:20.155Z,18880
2017-08-12T08:46:20.814Z,21120
2017-08-12T08:47:21.474Z,23232
2017-08-12T08:48:22.386Z,24960
2017-08-12T08:49:23.047Z,26016
2017-08-12T08:50:23.708Z,26816
2017-08-12T08:51:24.369Z,27744
2017-08-12T08:52:25.029Z,29344
2017-08-12T08:53:25.991Z,30432
2017-08-12T08:54:26.650Z,31424
2017-08-12T08:55:27.311Z,31648
2017-08-12T08:56:27.975Z,31616
2017-08-12T08:57:28.636Z,32768
2017-08-12T08:58:29.546Z,33952
2017-08-12T08:59:30.208Z,34976
2017-08-12T09:00:30.869Z,36320
2017-08-12T09:01:31.532Z,36992
2017-08-12T09:02:32.194Z,36544
2017-08-12T09:03:33.156Z,36128
2017-08-12T09:04:33.817Z,34496
2017-08-12T09:05:34.479Z,30528
2017-08-12T09:06:35.142Z,26848
2017-08-12T09:07:35.805Z,24064
2017-08-12T09:08:36.721Z,22144
2017-08-12T09:09:37.383Z,21152
2017-08-12T09:10:38.048Z,20512
2017-08-12T09:11:38.712Z,20032
2017-08-12T09:12:39.376Z,19360
2017-08-12T09:13:40.290Z,18496
2017-08-12T09:14:40.954Z,17632
2017-08-12T09:15:41.652Z,16580
2017-08-12T09:16:42.314Z,15632
2017-08-12T09:17:42.977Z,14696
2017-08-12T09:18:43.891Z,13840
2017-08-12T09:19:44.552Z,13076
2017-08-12T09:20:45.214Z,12448
2017-08-12T09:21:45.877Z,12000
2017-08-12T09:22:46.538Z,11640
2017-08-12T09:23:47.503Z,11308
2017-08-12T09:24:48.165Z,10828
2017-08-12T09:25:48.830Z,10424
2017-08-12T09:26:49.489Z,10040
2017-08-12T09:27:50.155Z,9540
2017-08-12T09:28:51.067Z,8860
2017-08-12T09:29:51.728Z,8380
2017-08-12T09:30:52.391Z,8228
2017-08-12T09:31:53.051Z,8376
2017-08-12T09:32:53.711Z,8536
2017-08-12T09:33:54.621Z,8556
2017-08-12T09:34:55.283Z,8380
2017-08-12T09:35:55.945Z,8220
2017-08-12T09:36:56.603Z,8044
2017-08-12T09:37:57.263Z,7876
2017-08-12T09:38:58.225Z,7760
2017-08-12T09:39:58.883Z,7616
2017-08-12T09:40:59.545Z,7444
2017-08-12T09:42:00.207Z,7300
2017-08-12T09:43:00.866Z,7200
2017-08-12T09:44:01.777Z,7104
2017-08-12T09:45:02.473Z,7024
2017-08-12T09:46:03.137Z,6980
2017-08-12T09:47:03.791Z,6876
2017-08-12T09:48:04.451Z,6676
2017-08-12T09:49:05.361Z,6384
2017-08-12T09:50:06.021Z,6052
2017-08-12T09:51:06.682Z,5752
2017-08-12T09:52:07.341Z,5444
2017-08-12T09:53:07.998Z,5212
2017-08-12T09:54:08.913Z,5092
2017-08-12T09:55:09.605Z,5076
2017-08-12T09:56:10.263Z,5136
2017-08-12T09:57:10.925Z,5188
2017-08-12T09:58:11.617Z,5196
2017-08-12T09:59:12.578Z,5188
2017-08-12T10:00:13.237Z,5176
2017-08-12T10:01:13.894Z,5184
2017-08-12T10:02:14.552Z,5164
2017-08-12T10:03:15.210Z,5212
2017-08-12T10:04:16.120Z,5276
2017-08-12T10:05:16.778Z,5316
2017-08-12T10:06:17.437Z,5436
2017-08-12T10:07:18.095Z,5660
2017-08-12T10:08:18.753Z,5924
2017-08-12T10:09:19.714Z,6104
2017-08-12T10:10:20.372Z,6328
2017-08-12T10:11:21.031Z,6844
2017-08-12T10:12:21.725Z,7672
2017-08-12T10:13:22.393Z,8728
2017-08-12T10:14:23.352Z,9732
2017-08-12T10:15:24.014Z,10356
2017-08-12T10:16:24.674Z,10312
2017-08-12T10:17:25.333Z,9980
2017-08-12T10:18:25.998Z,9376
2017-08-12T10:19:26.956Z,8824
2017-08-12T10:20:27.616Z,8376
2017-08-12T10:21:28.274Z,8156
2017-08-12T10:22:28.934Z,8044
2017-08-12T10:23:29.592Z,8044
2017-08-12T10:24:30.501Z,8104
2017-08-12T10:25:31.158Z,8272
2017-08-12T10:26:31.821Z,8572
2017-08-12T10:27:32.479Z,9000
2017-08-12T10:28:33.136Z,9576
2017-08-12T10:29:34.045Z,10220
2017-08-12T10:30:34.704Z,10896
2017-08-12T10:31:35.367Z,11408
2017-08-12T10:32:36.027Z,11816
2017-08-12T10:33:36.687Z,12052
2017-08-12T10:34:37.645Z,12124
2017-08-12T10:35:38.307Z,12160
2017-08-12T10:36:38.971Z,12236
2017-08-12T10:37:39.633Z,12476
2017-08-12T10:38:40.294Z,12784
2017-08-12T10:39:41.204Z,12904
2017-08-12T10:40:41.865Z,12712
2017-08-12T10:41:42.525Z,12444
2017-08-12T10:42:43.187Z,12340
2017-08-12T10:43:43.856Z,12552
2017-08-12T10:44:44.817Z,12996
2017-08-12T10:45:45.476Z,13644
2017-08-12T10:46:46.138Z,14580
2017-08-12T10:47:46.799Z,15820
2017-08-12T10:48:47.497Z,17144
2017-08-12T10:49:48.408Z,18400
2017-08-12T10:50:49.069Z,19520
2017-08-12T10:51:49.732Z,20288
2017-08-12T10:52:50.396Z,19616
2017-08-12T10:53:51.053Z,20704
2017-08-12T10:54:51.963Z,23808
2017-08-12T10:55:52.623Z,28992
2017-08-12T10:56:53.284Z,36960
2017-08-12T10:57:53.949Z,63680
2017-08-12T10:58:54.612Z,51968
2017-08-12T10:59:55.524Z,52832
2017-08-12T11:00:56.188Z,49856
2017-08-12T11:01:56.852Z,48000
2017-08-12T11:02:57.513Z,40640
2017-08-12T11:03:58.177Z,31840
2017-08-12T11:04:59.091Z,28160
2017-08-12T11:05:59.753Z,28608
2017-08-12T11:07:00.416Z,31552
2017-08-12T11:08:01.078Z,31808
2017-08-12T11:09:01.743Z,30592
2017-08-12T11:10:02.657Z,31072
2017-08-12T11:11:03.321Z,30624
2017-08-12T11:12:03.986Z,28512
2017-08-12T11:13:04.654Z,26048
2017-08-12T11:14:05.319Z,24544
2017-08-12T11:15:06.231Z,24832
2017-08-12T11:16:06.896Z,27968
2017-08-12T11:17:07.558Z,40352
2017-08-12T11:18:08.220Z,50080
2017-08-12T11:19:08.884Z,51936
2017-08-12T11:20:09.848Z,61024
2017-08-12T11:21:10.515Z,74400
2017-08-12T11:22:11.180Z,72896
2017-08-12T11:23:11.848Z,63776
2017-08-12T11:24:12.512Z,74592
2017-08-12T11:25:13.429Z,86752
2017-08-12T11:26:14.097Z,76960
2017-08-12T11:27:14.763Z,90240
2017-08-12T11:28:15.431Z,81696
2017-08-12T11:29:16.101Z,84576
2017-08-12T11:30:17.021Z,76736
2017-08-12T11:31:17.691Z,79136
2017-08-12T11:32:18.360Z,83520
2017-08-12T11:33:19.032Z,85472
2017-08-12T11:34:19.700Z,81216
2017-08-12T11:35:20.622Z,64544
2017-08-12T11:36:21.292Z,67296
2017-08-12T11:37:21.963Z,77504
2017-08-12T11:38:22.633Z,60608
2017-08-12T11:39:23.304Z,65920
2017-08-12T11:40:24.248Z,65536
2017-08-12T11:41:24.898Z,44960
2017-08-12T11:42:25.607Z,32352
2017-08-12T11:43:26.276Z,64704
2017-08-12T11:44:26.948Z,63040
2017-08-12T11:45:27.877Z,54240
2017-08-12T11:46:28.539Z,29088
2017-08-12T11:47:29.211Z,47264
2017-08-12T11:48:29.882Z,45184
2017-08-12T11:49:30.551Z,43584
2017-08-12T11:50:31.472Z,31296
2017-08-12T11:51:32.141Z,58592
2017-08-12T11:52:32.817Z,63104
2017-08-12T11:53:33.491Z,55520
2017-08-12T11:54:34.158Z,56864
2017-08-12T11:55:35.078Z,56128
2017-08-12T11:56:35.752Z,57760
2017-08-12T11:57:36.423Z,56512
2017-08-12T11:58:37.095Z,54208
2017-08-12T11:59:37.767Z,55104
2017-08-12T12:01:40.355Z,61856
2017-08-12T12:02:41.030Z,57568
2017-08-12T12:03:41.705Z,50976
2017-08-12T12:04:42.375Z,37472
2017-08-12T12:05:43.288Z,30592
2017-08-12T12:06:43.960Z,33568
2017-08-12T12:07:44.629Z,36512
2017-08-12T12:08:45.301Z,37312
2017-08-12T12:09:45.970Z,55936
2017-08-12T12:10:46.890Z,57952
2017-08-12T12:11:47.566Z,44128
2017-08-12T12:12:48.234Z,47072
2017-08-12T12:13:48.904Z,49024
2017-08-12T12:14:49.571Z,39616
2017-08-12T12:15:50.540Z,39360
2017-08-12T12:16:51.209Z,40032
2017-08-12T12:17:51.878Z,38912
2017-08-12T12:18:52.545Z,32576
2017-08-12T12:19:53.216Z,29504
2017-08-12T12:20:54.137Z,28352
2017-08-12T12:21:54.805Z,27616
2017-08-12T12:22:55.474Z,26912
2017-08-12T12:23:56.141Z,26784
2017-08-12T12:24:56.811Z,27424
2017-08-12T12:25:57.731Z,28000
2017-08-12T12:26:58.403Z,29024
2017-08-12T12:27:59.067Z,30432
2017-08-12T12:28:59.770Z,33184
2017-08-12T12:30:00.441Z,37376
2017-08-12T12:31:01.361Z,46112
2017-08-12T12:32:02.032Z,50496
2017-08-12T12:33:02.696Z,81984
2017-08-12T12:34:03.365Z,56064
2017-08-12T12:35:04.030Z,48192
2017-08-12T12:36:04.951Z,52128
2017-08-12T12:37:05.615Z,52832
2017-08-12T12:38:06.284Z,50176
2017-08-12T12:39:06.950Z,57408
2017-08-12T12:40:07.615Z,50752
2017-08-12T12:41:08.535Z,59136
2017-08-12T12:42:09.202Z,52448
2017-08-12T12:43:09.868Z,52032
2017-08-12T12:44:10.536Z,67744
2017-08-12T12:45:11.204Z,61152
2017-08-12T12:46:12.122Z,65824
2017-08-12T12:47:12.789Z,61856
2017-08-12T12:48:13.456Z,71616
2017-08-12T12:49:14.124Z,80768
2017-08-12T12:50:14.790Z,78304
2017-08-12T12:51:15.709Z,66656
2017-08-12T12:52:16.378Z,74720
2017-08-12T12:53:17.047Z,144160
2017-08-12T12:54:17.718Z,112896
2017-08-12T12:55:18.389Z,115808
2017-08-12T12:56:19.358Z,115552
2017-08-12T12:57:20.030Z,104768
2017-08-12T12:58:20.699Z,84896
2017-08-12T12:59:21.370Z,82656
2017-08-12T13:00:22.038Z,97856
2017-08-12T13:01:22.958Z,105024
2017-08-12T13:02:23.627Z,87424
2017-08-12T13:03:24.295Z,90432
2017-08-12T13:04:24.966Z,95008
2017-08-12T13:05:25.639Z,92128
2017-08-12T13:06:26.560Z,93152
2017-08-12T13:07:27.230Z,87104
2017-08-12T13:08:27.899Z,46016
2017-08-12T13:09:28.569Z,42272
2017-08-12T13:10:29.239Z,37984
2017-08-12T13:11:30.160Z,37248
2017-08-12T13:12:30.827Z,38368
2017-08-12T13:13:31.546Z,49920
2017-08-12T13:14:32.213Z,71168
2017-08-12T13:15:32.882Z,56224
2017-08-12T13:16:34.603Z,51776
2017-08-12T13:17:35.306Z,68960
2017-08-12T13:18:35.977Z,79360
2017-08-12T13:19:36.648Z,101408
2017-08-12T13:20:37.317Z,75360
2017-08-12T13:21:38.236Z,84736
2017-08-12T13:22:38.906Z,74432
2017-08-12T13:23:39.574Z,76160
2017-08-12T13:24:40.245Z,99232
2017-08-12T13:25:40.955Z,104192
2017-08-12T13:26:41.887Z,69696
2017-08-12T13:27:42.580Z,35456
2017-08-12T13:28:43.251Z,37472
2017-08-12T13:29:43.920Z,30624
2017-08-12T13:30:44.588Z,28800
2017-08-12T13:31:45.510Z,27008
2017-08-12T13:32:46.178Z,25760
2017-08-12T13:33:46.846Z,31104
2017-08-12T13:34:47.516Z,27072
2017-08-12T13:35:48.184Z,22592
2017-08-12T13:36:49.103Z,16424
2017-08-12T13:37:49.775Z,13848
2017-08-12T13:38:50.440Z,13304
2017-08-12T13:39:51.110Z,14376
2017-08-12T13:40:51.780Z,15388
2017-08-12T13:41:52.696Z,15528